Cape Sakura — 7JHZ — position and weather

sailwx.info

Track history (hours):
 
Tides and Currents Weather Stations Pressure Air Temp Water Temp Dewpoint Dewpoint Depression Visibility Wind Speed Wind Dir Waves Ship Positions

Cape Sakura

Last reported at 2018-May-15 18:44 UTC. Time now 2018-May-24 02:34 UTC.
Position N 31°06' E 122°18'.
Warning: this ship's position is 8 days out of date.

Length 292 m; draft 9.8 m.

Type: Cargo ship. MMSI: 432786000.

Date/timePositionNaut miles runAvg speedWind from/ knotsBaromVisibWave heightAir tempDewpointWater temp
2018-May-15 18:44N 31°06' E 122°18'314.6
2018-May-15 18:30N 31°08' E 122°15'714.6
2018-May-15 18:00N 31°12' E 122°08'814.5
2018-May-15 17:27N 31°15' E 121°59'613.1
2018-May-15 17:00N 31°16' E 121°53'510.4
2018-May-15 16:30N 31°18' E 121°47'5 9.2
2018-May-15 16:00N 31°20' E 121°42'3 5.8
2018-May-15 15:30N 31°21' E 121°39'4 8.0
2018-May-15 15:00N 31°23' E 121°35'4 7.3
2018-May-15 14:29N 31°25' E 121°31'3 6.2
2018-May-15 14:00N 31°27' E 121°28'4 7.5
2018-May-15 13:30N 31°30' E 121°25'510.1
2018-May-15 13:00N 31°32' E 121°20'5 9.8
2018-May-15 12:30N 31°36' E 121°17'612.7
2018-May-15 12:00N 31°41' E 121°11'612.4
2018-May-15 11:30N 31°44' E 121°06'5 9.3
2018-May-15 10:59N 31°46' E 121°01'26 9.4
2018-May-15 08:10N 32°00' E 120°34'211.7
2018-May-15 08:00N 32°01' E 120°32'5 9.6
2018-May-15 07:30N 32°02' E 120°27'711.2
2018-May-15 06:55N 31°58' E 120°20'  
2018-May-10 06:18N 31°57' E 120°17'512.5
2018-May-10 05:52N 31°60' E 120°22'411.7
2018-May-10 05:30N 32°02' E 120°27'611.6
2018-May-10 05:00N 32°01' E 120°33'2510.2
2018-May-10 02:34N 31°47' E 120°58'1 9.2
2018-May-10 02:28N 31°47' E 120°59'511.0
2018-May-10 02:00N 31°45' E 121°05'713.8
2018-May-10 01:30N 31°41' E 121°11'714.3
2018-May-10 01:00N 31°36' E 121°17'611.6
2018-May-10 00:30N 31°32' E 121°22'611.5
2018-May-10 00:00N 31°29' E 121°27'510.5
2018-May-09 23:29N 31°25' E 121°32'510.4
2018-May-09 23:01N 31°22' E 121°37'610.3
2018-May-09 22:25N 31°19' E 121°43'410.1
2018-May-09 22:00N 31°18' E 121°48'5 9.2
2018-May-09 21:29N 31°16' E 121°53'510.4
2018-May-09 21:00N 31°15' E 121°58'510.1
2018-May-09 20:30N 31°14' E 122°04'5 9.7
2018-May-09 19:56N 31°11' E 122°10'4 9.8
2018-May-09 19:30N 31°09' E 122°14'511.0
2018-May-09 19:00N 31°06' E 122°19'6 9.3
2018-May-09 18:22N 31°07' E 122°26'4 6.8
2018-May-09 17:50N 31°09' E 122°30'14 0.5
2018-May-08 12:05N 31°18' E 122°42'0 0.2
2018-May-08 10:41N 31°18' E 122°42'0 0.0
2018-May-08 10:29N 31°18' E 122°42'0 0.1
2018-May-08 09:59N 31°18' E 122°42'0 0.0
2018-May-08 08:29N 31°18' E 122°42'  
Track history (hours):
 
Tides and Currents Weather Stations Pressure Air Temp Water Temp Dewpoint Dewpoint Depression Visibility Wind Speed Wind Dir Waves Ship Positions

Cape Sakura

Last reported at 2018-May-15 18:44 UTC. Time now 2018-May-24 02:34 UTC.
Position N 31°06' E 122°18'.
Warning: this ship's position is 8 days out of date.

Length 292 m; draft 9.8 m.

Type: Cargo ship. MMSI: 432786000.

Date/timePositionNaut miles runAvg speedWind from/ knotsBaromVisibWave heightAir tempDewpointWater temp
2018-May-15 18:44N 31°06' E 122°18'314.6
2018-May-15 18:30N 31°08' E 122°15'714.6
2018-May-15 18:00N 31°12' E 122°08'814.5
2018-May-15 17:27N 31°15' E 121°59'613.1
2018-May-15 17:00N 31°16' E 121°53'510.4
2018-May-15 16:30N 31°18' E 121°47'5 9.2
2018-May-15 16:00N 31°20' E 121°42'3 5.8
2018-May-15 15:30N 31°21' E 121°39'4 8.0
2018-May-15 15:00N 31°23' E 121°35'4 7.3
2018-May-15 14:29N 31°25' E 121°31'3 6.2
2018-May-15 14:00N 31°27' E 121°28'4 7.5
2018-May-15 13:30N 31°30' E 121°25'510.1
2018-May-15 13:00N 31°32' E 121°20'5 9.8
2018-May-15 12:30N 31°36' E 121°17'612.7
2018-May-15 12:00N 31°41' E 121°11'612.4
2018-May-15 11:30N 31°44' E 121°06'5 9.3
2018-May-15 10:59N 31°46' E 121°01'26 9.4
2018-May-15 08:10N 32°00' E 120°34'211.7
2018-May-15 08:00N 32°01' E 120°32'5 9.6
2018-May-15 07:30N 32°02' E 120°27'711.2
2018-May-15 06:55N 31°58' E 120°20'  
2018-May-10 06:18N 31°57' E 120°17'512.5
2018-May-10 05:52N 31°60' E 120°22'411.7
2018-May-10 05:30N 32°02' E 120°27'611.6
2018-May-10 05:00N 32°01' E 120°33'2510.2
2018-May-10 02:34N 31°47' E 120°58'1 9.2
2018-May-10 02:28N 31°47' E 120°59'511.0
2018-May-10 02:00N 31°45' E 121°05'713.8
2018-May-10 01:30N 31°41' E 121°11'714.3
2018-May-10 01:00N 31°36' E 121°17'611.6
2018-May-10 00:30N 31°32' E 121°22'611.5
2018-May-10 00:00N 31°29' E 121°27'510.5
2018-May-09 23:29N 31°25' E 121°32'510.4
2018-May-09 23:01N 31°22' E 121°37'610.3
2018-May-09 22:25N 31°19' E 121°43'410.1
2018-May-09 22:00N 31°18' E 121°48'5 9.2
2018-May-09 21:29N 31°16' E 121°53'510.4
2018-May-09 21:00N 31°15' E 121°58'510.1
2018-May-09 20:30N 31°14' E 122°04'5 9.7
2018-May-09 19:56N 31°11' E 122°10'4 9.8
2018-May-09 19:30N 31°09' E 122°14'511.0
2018-May-09 19:00N 31°06' E 122°19'6 9.3
2018-May-09 18:22N 31°07' E 122°26'4 6.8
2018-May-09 17:50N 31°09' E 122°30'14 0.5
2018-May-08 12:05N 31°18' E 122°42'0 0.2
2018-May-08 10:41N 31°18' E 122°42'0 0.0
2018-May-08 10:29N 31°18' E 122°42'0 0.1
2018-May-08 09:59N 31°18' E 122°42'0 0.0
2018-May-08 08:29N 31°18' E 122°42'  

Dump ship's entire track history